Terminal Aerodrome Forecast
Issued by NWS Tampa Bay Area, FL

Home | Current Version | Previous Version | Text Only | Print | Product List | Glossary On
Versions: 1 2 3 4 5 6 7 8 9 10 11 12 13 14 15 16 17 18 19 20 21 22 23 24
319
FTUS42 KTBW 292320
TAFTPA
TAF
KTPA 292320Z 3000/3024 31006KT P6SM SCT100
     FM300400 VRB03KT P6SM FEW250
     FM301300 14006KT P6SM FEW250
     FM301500 18009KT P6SM FEW035 FEW250
     FM302000 22012G17KT P6SM FEW060 SCT250=

USA.gov is the U.S. government's official web portal to all federal, state and local government web resources and services.